Aérodrome :
LOGIN :

S'inscrire | Disclaimer

   EN    FR    IT 

 










Légende :    VFR   VFR Marginal   IFR   IFR Intensif   IFR Très Intensif
Visi : 
Plafond : 
>= 8 km
>= 3000ft
5 à 8 km
1000 à 3000 ft
1500m à 5 km
500 à 1000 ft
800 à 1500m
200 à 500 ft
< 800m
< 200 ft
Symboles :   Orages  Brouillard  Fortes neiges  Fortes précipitations  Vent > 20 kt
SIGMETs :   Divers  Orages  Givrage  Turbulence  Onde Orograph.  Cendres Volcan.







- Altitude de l'aérodrome : 370 ft


EBBE - Beauvechain AB

DERNIER METAR :
  • 172114Z AUTO 26006KT 0900 -SN SCT004/// BKN007/// BKN030/// 00/M00 Q1014 AMB

METARs EXPIRÉS :
  • 172055Z AUTO 26007KT 3400 -SN OVC055/// 00/M00 Q1014 YLO
  • 172054Z AUTO 27007KT 3100 -SN OVC041/// 01/M00 Q1014 YLO
  • 172025Z AUTO 26009KT 9999 FEW005/// SCT007/// BKN009/// 01/00 Q1013 GRN
  • 172017Z AUTO 25009KT 9999 SCT006/// 01/00 Q1013 YLO
  • 171955Z AUTO 25009KT 9999 FEW006/// 01/M00 Q1013 BLU
  • 171952Z AUTO 25008KT 9999 FEW006/// 01/M00 Q1013 BLU
  • 171925Z AUTO 26011KT 9999 FEW004/// SCT018/// BKN055/// 01/00 Q1012 WHT
  • 171922Z AUTO 25011KT 9999 FEW006/// SCT010/// 01/M00 Q1012 GRN
  • 171907Z AUTO 26011KT 9999 SCT006/// BKN010/// 01/M00 Q1012 YLO
  • 171855Z AUTO 26009KT 9999 FEW005/// SCT007/// BKN020/// 01/00 Q1012 GRN
  • 171833Z AUTO 28012KT 8000 -RASN FEW004/// SCT008/// BKN035/// 01/00 Q1012 GRN
  • 171815Z AUTO 27014KT 9999 -RASN FEW006/// SCT008/// BKN012/// 01/M00 Q1011 GRN

TAF TAF EBBE
Valide du 17 à 19h jusqu'au 18 à 07h UTC


171541Z 1719/1807 29010KT 9999 FEW018 SCT030
BECMG 1723/1801 26005KT 5000 BR
TEMPO 1803/1807 3000 BR
BECMG 1805/1807 0900 FZFG SCT210
Pas de NOTAMs connus pour ce terrain.



MET'MAP, la Météo Aéronautique d'un coup d'oeil ! - Copyright ORBIFLY Décembre 2007 - Disclaimer

ORBIFLY MET'MAP TEAM :

Programmation & Développement : Alexandra Zaïnal
Conception & Développement : Baudouin d'Aumeries
Co-Programmation & Développement : Marc-Olivier Méhu
Soutien technique & logistique : Manuel Goepfert

Contact : metmap@orbifly.com




SOURCES & CREDITS :

   NOAA